Time;durP1;ratioP1;P1;durP2;ratioP2;P2;SDS_P1;SDS_P2;PMS_P1;PMS_P2;Temp;Humidity;BMP_temperature;BMP_pressure;BME280_temperature;BME280_humidity;BME280_pressure;Samples;Min_cycle;Max_cycle;Signal;HPM_P1;HPM_P2
2020/12/25 00:01:46;;;;;;;20.37;19.27;;;3.40;1.00;;;;;;5056186;28;20179;-73
2020/12/25 00:04:12;;;;;;;24.40;23.23;;;3.30;1.00;;;;;;5074027;28;20169;-73
2020/12/25 00:06:37;;;;;;;20.30;19.10;;;3.40;1.00;;;;;;5072603;28;20253;-73
2020/12/25 00:09:05;;;;;;;27.53;26.43;;;3.40;1.00;;;;;;5055923;28;20238;-73
2020/12/25 00:11:32;;;;;;;26.48;24.50;;;3.50;1.00;;;;;;5074192;28;20384;-73
2020/12/25 00:13:58;;;;;;;19.23;18.33;;;3.50;1.00;;;;;;5056362;28;20263;-73
2020/12/25 00:16:25;;;;;;;17.23;16.13;;;3.40;1.00;;;;;;5073683;28;20205;-73
2020/12/25 00:18:50;;;;;;;18.10;17.20;;;3.50;1.00;;;;;;5073679;28;20161;-73
2020/12/25 00:21:16;;;;;;;16.63;14.20;;;3.50;1.00;;;;;;5074282;28;20181;-73
2020/12/25 00:23:42;;;;;;;24.90;23.48;;;3.40;1.00;;;;;;5073896;28;20604;-73
2020/12/25 00:26:08;;;;;;;25.00;23.93;;;3.50;1.00;;;;;;5074159;28;20181;-73
2020/12/25 00:28:34;;;;;;;20.98;20.08;;;3.40;1.00;;;;;;5055504;28;20197;-73
2020/12/25 00:30:59;;;;;;;21.50;20.30;;;3.40;1.00;;;;;;5073648;28;20581;-73
2020/12/25 00:33:25;;;;;;;17.47;16.57;;;3.40;1.00;;;;;;5073724;28;20248;-73
2020/12/25 00:35:51;;;;;;;22.77;21.60;;;3.40;1.00;;;;;;5074019;28;20250;-73
2020/12/25 00:38:16;;;;;;;23.33;22.13;;;3.50;1.00;;;;;;5073255;28;20254;-73
2020/12/25 00:40:43;;;;;;;21.67;19.97;;;3.40;1.00;;;;;;5073850;28;20173;-73
2020/12/25 00:43:09;;;;;;;21.77;20.48;;;3.50;1.00;;;;;;5073393;28;20173;-73
2020/12/25 00:45:35;;;;;;;18.93;17.90;;;3.50;1.00;;;;;;5073199;28;20173;-73
2020/12/25 00:48:01;;;;;;;22.23;21.08;;;3.40;1.00;;;;;;5073393;28;20268;-73
2020/12/25 00:50:27;;;;;;;27.35;25.67;;;3.40;1.00;;;;;;5073949;28;20165;-73
2020/12/25 00:52:52;;;;;;;23.20;22.10;;;3.40;1.00;;;;;;5073893;28;20188;-73
2020/12/25 00:55:18;;;;;;;23.50;22.20;;;3.30;1.00;;;;;;5073685;28;20256;-73
2020/12/25 00:57:43;;;;;;;21.83;20.73;;;3.40;1.00;;;;;;5073274;28;20213;-73
2020/12/25 01:00:09;;;;;;;22.97;21.50;;;3.40;1.00;;;;;;5073860;28;20253;-73
2020/12/25 01:02:35;;;;;;;25.83;24.30;;;3.40;1.00;;;;;;5073958;28;20172;-73
2020/12/25 01:05:01;;;;;;;35.00;33.60;;;3.40;1.00;;;;;;5073546;28;20404;-73
2020/12/25 01:07:26;;;;;;;28.13;26.30;;;3.40;1.00;;;;;;5073047;28;20193;-73
2020/12/25 01:09:52;;;;;;;24.60;23.50;;;3.30;1.00;;;;;;5073487;28;20491;-73
2020/12/25 01:12:17;;;;;;;24.53;23.60;;;3.30;1.00;;;;;;5073632;28;20642;-73
2020/12/25 01:14:43;;;;;;;27.90;26.33;;;3.30;1.00;;;;;;5073576;28;20264;-73
2020/12/25 01:17:08;;;;;;;29.40;28.10;;;3.30;1.00;;;;;;5073380;28;20208;-73
2020/12/25 01:19:34;;;;;;;33.87;32.30;;;3.30;1.00;;;;;;5073862;28;20162;-73
2020/12/25 01:22:00;;;;;;;26.73;25.17;;;3.30;1.00;;;;;;5073579;28;20176;-73
2020/12/25 01:24:27;;;;;;;27.60;26.47;;;3.30;1.00;;;;;;5073315;28;20193;-73
2020/12/25 01:26:53;;;;;;;27.90;26.60;;;3.30;1.00;;;;;;5073129;28;20192;-74
2020/12/25 01:29:18;;;;;;;30.30;28.77;;;3.30;1.00;;;;;;5073793;28;20177;-73
2020/12/25 01:31:44;;;;;;;26.13;25.00;;;3.30;1.00;;;;;;5073674;28;20257;-73
2020/12/25 01:34:10;;;;;;;26.03;24.80;;;3.30;1.00;;;;;;5073275;28;20173;-73
2020/12/25 01:36:35;;;;;;;31.50;30.20;;;3.30;1.00;;;;;;5072868;28;20228;-73
2020/12/25 01:39:02;;;;;;;26.33;25.33;;;3.30;1.00;;;;;;5072895;28;20600;-73
2020/12/25 01:41:28;;;;;;;24.50;23.55;;;3.30;1.00;;;;;;5055428;28;20173;-73
2020/12/25 01:43:54;;;;;;;23.60;22.50;;;3.30;1.00;;;;;;5073363;28;20227;-73
2020/12/25 01:46:19;;;;;;;24.43;22.97;;;3.30;1.00;;;;;;5073450;28;20171;-73
2020/12/25 01:48:45;;;;;;;23.07;21.77;;;3.30;1.00;;;;;;5072769;28;20252;-73
2020/12/25 01:51:13;;;;;;;27.57;26.27;;;3.20;1.00;;;;;;5072964;28;20264;-73
2020/12/25 01:53:41;;;;;;;34.58;32.97;;;3.20;1.00;;;;;;5073037;28;20388;-73
2020/12/25 01:56:07;;;;;;;22.27;21.23;;;3.20;1.00;;;;;;5074829;28;20233;-74
2020/12/25 01:58:33;;;;;;;31.95;30.33;;;3.10;1.00;;;;;;5076033;28;20205;-73
2020/12/25 02:01:01;;;;;;;26.13;24.73;;;3.10;1.00;;;;;;5059125;28;20260;-73
2020/12/25 02:03:26;;;;;;;23.30;22.20;;;3.10;1.00;;;;;;5076744;28;20865;-73
2020/12/25 02:05:52;;;;;;;21.33;20.03;;;3.10;1.00;;;;;;5076849;28;20180;-73
2020/12/25 02:08:17;;;;;;;21.27;20.20;;;3.10;1.00;;;;;;5058422;28;20579;-73
2020/12/25 02:10:44;;;;;;;26.13;24.83;;;3.00;1.00;;;;;;5076652;28;20184;-73
2020/12/25 02:13:11;;;;;;;30.77;28.98;;;3.10;1.00;;;;;;5076586;28;20560;-73
2020/12/25 02:15:36;;;;;;;31.65;29.85;;;3.20;1.00;;;;;;5076807;28;20177;-73
2020/12/25 02:18:03;;;;;;;28.63;26.87;;;3.20;1.00;;;;;;5075880;28;20562;-73
2020/12/25 02:20:29;;;;;;;26.52;24.70;;;3.20;1.00;;;;;;5076490;28;20165;-73
2020/12/25 02:22:55;;;;;;;25.33;23.80;;;3.30;1.00;;;;;;5076341;28;20550;-73
2020/12/25 02:25:20;;;;;;;26.47;24.97;;;3.40;1.00;;;;;;5076199;28;20642;-73
2020/12/25 02:27:46;;;;;;;23.13;21.60;;;3.50;1.00;;;;;;5075865;28;20193;-73
2020/12/25 02:30:14;;;;;;;27.30;25.87;;;3.50;1.00;;;;;;5075902;28;20174;-74
2020/12/25 02:32:40;;;;;;;28.77;27.25;;;3.50;1.00;;;;;;5075931;28;20169;-73
2020/12/25 02:35:05;;;;;;;28.50;27.27;;;3.60;1.00;;;;;;5075988;28;20183;-73
2020/12/25 02:37:31;;;;;;;32.03;30.07;;;3.60;1.00;;;;;;5075736;28;20228;-74
2020/12/25 02:39:56;;;;;;;25.60;24.37;;;3.50;1.00;;;;;;5075734;28;20196;-73
2020/12/25 02:42:22;;;;;;;31.53;30.13;;;3.40;1.00;;;;;;5076209;28;20173;-74
2020/12/25 02:44:48;;;;;;;28.17;26.77;;;3.30;1.00;;;;;;5075948;28;20248;-73
2020/12/25 02:47:13;;;;;;;27.43;26.23;;;3.30;1.00;;;;;;5075815;28;20214;-74
2020/12/25 02:49:39;;;;;;;22.87;21.97;;;3.20;1.00;;;;;;5075903;28;20212;-73
2020/12/25 02:52:05;;;;;;;31.13;29.90;;;3.20;1.00;;;;;;5075560;28;20192;-73
2020/12/25 02:54:31;;;;;;;31.70;30.15;;;3.10;1.00;;;;;;5075863;28;20866;-73
2020/12/25 02:57:00;;;;;;;35.30;33.47;;;2.90;1.00;;;;;;5075085;28;20331;-74
2020/12/25 02:59:26;;;;;;;33.58;32.17;;;2.90;1.00;;;;;;5075248;28;20182;-73
2020/12/25 03:01:52;;;;;;;25.25;23.95;;;2.80;1.00;;;;;;5075376;28;20255;-74
2020/12/25 03:04:21;;;;;;;31.63;30.10;;;2.70;1.00;;;;;;5075272;28;20561;-74
2020/12/25 03:06:47;;;;;;;33.42;32.22;;;2.60;1.00;;;;;;5074720;28;20197;-73
2020/12/25 03:09:13;;;;;;;31.17;29.77;;;2.60;1.00;;;;;;5074797;28;20176;-73
2020/12/25 03:11:39;;;;;;;24.45;23.45;;;2.50;1.00;;;;;;5057076;28;20775;-73
2020/12/25 03:14:05;;;;;;;23.25;22.38;;;2.40;1.00;;;;;;5075794;28;20181;-74
2020/12/25 03:16:31;;;;;;;24.23;23.10;;;2.30;1.00;;;;;;5075148;28;20238;-73
2020/12/25 03:18:56;;;;;;;30.00;28.70;;;2.30;1.00;;;;;;5056889;28;20422;-73
2020/12/25 03:21:23;;;;;;;31.70;30.20;;;2.20;1.00;;;;;;5075384;28;20249;-73
2020/12/25 03:23:48;;;;;;;26.45;24.55;;;2.10;1.00;;;;;;5074862;28;20173;-73
2020/12/25 03:26:15;;;;;;;27.50;26.40;;;2.10;1.00;;;;;;5075501;28;20177;-73
2020/12/25 03:28:41;;;;;;;28.50;26.90;;;2.10;1.00;;;;;;5075222;28;20193;-74
2020/12/25 03:31:06;;;;;;;28.03;26.73;;;2.00;1.00;;;;;;5075050;28;20181;-73
2020/12/25 03:33:32;;;;;;;31.83;30.13;;;2.00;1.00;;;;;;5074692;28;20470;-73
2020/12/25 03:35:58;;;;;;;22.63;21.50;;;1.90;1.00;;;;;;5074906;28;20169;-73
2020/12/25 03:38:24;;;;;;;27.17;25.83;;;1.90;1.00;;;;;;5074257;28;20288;-73
2020/12/25 03:40:50;;;;;;;27.00;25.80;;;1.80;1.00;;;;;;5074877;28;20256;-73
2020/12/25 03:43:15;;;;;;;26.80;25.80;;;1.80;1.00;;;;;;5075180;28;20251;-73
2020/12/25 03:45:41;;;;;;;35.30;33.77;;;1.80;1.00;;;;;;5074499;28;20191;-73
2020/12/25 03:48:06;;;;;;;29.10;28.10;;;1.80;1.00;;;;;;5074284;28;20193;-73
2020/12/25 03:50:32;;;;;;;31.27;29.97;;;1.70;1.00;;;;;;5074699;28;20169;-74
2020/12/25 03:52:58;;;;;;;29.03;27.80;;;1.70;1.00;;;;;;5074775;28;20200;-73
2020/12/25 03:55:23;;;;;;;30.57;29.33;;;1.70;1.00;;;;;;5074259;28;20181;-73
2020/12/25 03:57:49;;;;;;;26.20;24.80;;;1.70;1.00;;;;;;5056119;28;20216;-73
2020/12/25 04:00:15;;;;;;;21.83;21.02;;;1.70;1.00;;;;;;5074497;28;20165;-73
2020/12/25 04:02:41;;;;;;;23.70;22.80;;;1.70;1.00;;;;;;5056259;28;20176;-74
2020/12/25 04:05:06;;;;;;;31.60;30.50;;;1.60;1.00;;;;;;5074061;28;20171;-73
2020/12/25 04:07:32;;;;;;;25.97;24.37;;;1.60;1.00;;;;;;5074240;28;20229;-74
2020/12/25 04:09:57;;;;;;;21.90;20.90;;;1.60;1.00;;;;;;5074013;28;20206;-74
2020/12/25 04:12:23;;;;;;;25.93;24.23;;;1.60;1.00;;;;;;5074283;28;20183;-73
2020/12/25 04:14:49;;;;;;;27.23;26.13;;;1.50;1.00;;;;;;5074247;28;20176;-74
2020/12/25 04:17:14;;;;;;;29.50;28.30;;;1.50;1.00;;;;;;5055828;28;20671;-73
2020/12/25 04:19:40;;;;;;;36.47;34.87;;;1.60;1.00;;;;;;5074039;28;20169;-74
2020/12/25 04:22:05;;;;;;;38.10;36.70;;;1.50;1.00;;;;;;5074081;28;20176;-74
2020/12/25 04:24:31;;;;;;;34.73;32.83;;;1.50;1.00;;;;;;5074341;28;20643;-74
2020/12/25 04:26:56;;;;;;;32.20;30.60;;;1.60;1.00;;;;;;5074161;28;20666;-74
2020/12/25 04:29:22;;;;;;;24.73;23.83;;;1.50;1.00;;;;;;5073567;28;20220;-74
2020/12/25 04:31:47;;;;;;;26.00;25.07;;;1.50;1.00;;;;;;5073856;28;20248;-73
2020/12/25 04:34:13;;;;;;;24.57;23.70;;;1.50;1.00;;;;;;5056034;28;20207;-74
2020/12/25 04:36:39;;;;;;;25.10;24.20;;;1.50;1.00;;;;;;5073944;28;20228;-74
2020/12/25 04:39:06;;;;;;;32.60;31.50;;;1.50;1.00;;;;;;5073985;28;20220;-74
2020/12/25 04:41:33;;;;;;;21.40;20.50;;;1.50;1.00;;;;;;5074180;28;20569;-74
2020/12/25 04:44:00;;;;;;;27.65;26.75;;;1.50;1.00;;;;;;5073576;28;20219;-74
2020/12/25 04:46:26;;;;;;;22.63;21.48;;;1.50;1.00;;;;;;5073668;28;20172;-73
2020/12/25 04:48:52;;;;;;;20.97;20.07;;;1.60;1.00;;;;;;5073443;28;20166;-74
2020/12/25 04:51:18;;;;;;;23.75;22.52;;;1.50;1.00;;;;;;5073879;28;20168;-74
2020/12/25 04:53:49;;;;;;;28.45;26.95;;;1.50;1.00;;;;;;5074047;28;20227;-74
2020/12/25 04:56:16;;;;;;;28.33;27.02;;;1.60;1.00;;;;;;5056110;28;20176;-74
2020/12/25 04:58:42;;;;;;;29.52;28.30;;;1.50;1.00;;;;;;5055211;28;20208;-74
2020/12/25 05:01:08;;;;;;;35.90;34.40;;;1.60;1.00;;;;;;5073590;28;20210;-74
2020/12/25 05:03:39;;;;;;;28.25;27.13;;;1.60;1.00;;;;;;5073685;28;20646;-74
2020/12/25 05:06:16;;;;;;;31.88;30.60;;;1.60;1.00;;;;;;5073673;28;20558;-74
2020/12/25 05:08:49;;;;;;;31.48;30.38;;;1.60;1.00;;;;;;5072996;28;20181;-74
2020/12/25 05:11:20;;;;;;;25.48;23.65;;;1.60;1.00;;;;;;5073587;28;20166;-74
2020/12/25 05:13:50;;;;;;;29.27;28.00;;;1.60;1.00;;;;;;5073733;28;20169;-74
2020/12/25 05:16:17;;;;;;;26.52;25.17;;;1.50;1.00;;;;;;5073619;28;20177;-74
2020/12/25 05:18:45;;;;;;;33.95;31.95;;;1.50;1.00;;;;;;5072920;28;20326;-74
2020/12/25 05:21:16;;;;;;;24.52;22.65;;;1.50;1.00;;;;;;5073824;28;20174;-74
2020/12/25 05:23:43;;;;;;;21.92;20.95;;;1.50;1.00;;;;;;5055045;28;20636;-74
2020/12/25 05:26:10;;;;;;;17.70;17.00;;;1.50;1.00;;;;;;5073185;28;20267;-74
2020/12/25 05:28:42;;;;;;;33.42;31.70;;;1.50;1.00;;;;;;5073292;28;20189;-74
2020/12/25 05:31:09;;;;;;;25.83;25.02;;;1.50;1.00;;;;;;5075586;28;20173;-74
2020/12/25 05:33:36;;;;;;;30.33;28.85;;;1.50;1.00;;;;;;5077660;28;20181;-74
2020/12/25 05:36:05;;;;;;;28.58;27.67;;;1.40;1.00;;;;;;5077001;28;20173;-74
2020/12/25 05:38:30;;;;;;;25.45;24.45;;;1.40;1.00;;;;;;5058619;28;20671;-73
2020/12/25 05:40:58;;;;;;;30.80;28.60;;;1.50;1.00;;;;;;5058904;28;20223;-74
2020/12/25 05:43:24;;;;;;;22.20;21.20;;;1.50;1.00;;;;;;5076773;28;20208;-74
2020/12/25 05:45:49;;;;;;;24.83;23.63;;;1.40;1.00;;;;;;5077223;28;20193;-74
2020/12/25 05:48:15;;;;;;;25.63;24.40;;;1.40;1.00;;;;;;5076554;28;20227;-74
2020/12/25 05:50:42;;;;;;;29.07;27.73;;;1.40;1.00;;;;;;5076834;28;20193;-74
2020/12/25 05:53:08;;;;;;;22.35;21.30;;;1.30;1.00;;;;;;5076846;28;20172;-73
2020/12/25 05:55:33;;;;;;;18.37;17.67;;;1.30;1.00;;;;;;5059045;28;20279;-74
2020/12/25 05:58:00;;;;;;;25.60;24.20;;;1.30;1.00;;;;;;5076129;28;20473;-74
2020/12/25 06:00:27;;;;;;;22.60;21.75;;;1.20;1.00;;;;;;5076481;28;20169;-74
2020/12/25 06:02:55;;;;;;;24.77;23.92;;;1.30;1.00;;;;;;5059206;28;20196;-74
2020/12/25 06:05:22;;;;;;;26.23;25.25;;;1.30;1.00;;;;;;5076349;28;20177;-74
2020/12/25 06:08:12;;;;;;;26.10;25.20;;;1.30;1.00;;;;;;5076247;28;20185;-74
2020/12/25 06:10:43;;;;;;;28.60;27.05;;;1.30;1.00;;;;;;5029615;28;20193;-74
2020/12/25 06:13:16;;;;;;;28.75;27.48;;;1.30;1.00;;;;;;5076495;28;20248;-74
2020/12/25 06:15:48;;;;;;;28.20;27.08;;;1.30;1.00;;;;;;5076557;28;20157;-74
2020/12/25 06:18:16;;;;;;;29.13;27.92;;;1.30;1.00;;;;;;5076093;28;20220;-74
2020/12/25 06:20:54;;;;;;;32.10;30.80;;;1.40;1.00;;;;;;5076308;28;20178;-74
2020/12/25 06:23:21;;;;;;;20.27;19.33;;;1.40;1.00;;;;;;5076664;28;20621;-74
2020/12/25 06:25:50;;;;;;;26.08;25.25;;;1.30;1.00;;;;;;5076264;28;20630;-74
2020/12/25 06:28:18;;;;;;;26.02;24.60;;;1.40;1.00;;;;;;5075882;28;20291;-74
2020/12/25 06:30:44;;;;;;;23.60;22.25;;;1.40;1.00;;;;;;5076121;28;20173;-74
2020/12/25 06:33:10;;;;;;;31.83;30.43;;;1.40;1.00;;;;;;5076260;28;20504;-74
2020/12/25 06:35:38;;;;;;;28.55;27.48;;;1.40;1.00;;;;;;5076381;28;20298;-74
2020/12/25 06:38:18;;;;;;;29.23;28.17;;;1.40;1.00;;;;;;5075506;28;20212;-74
2020/12/25 06:40:44;;;;;;;30.45;29.35;;;1.40;1.00;;;;;;5075883;28;20642;-74
2020/12/25 06:43:20;;;;;;;30.40;28.97;;;1.40;1.00;;;;;;5074400;28;20173;-74
2020/12/25 06:45:52;;;;;;;24.63;23.65;;;1.50;1.00;;;;;;5075683;28;20457;-74
2020/12/25 06:48:22;;;;;;;30.77;29.70;;;1.40;1.00;;;;;;5057474;28;20208;-74
2020/12/25 06:50:56;;;;;;;30.45;28.92;;;1.40;1.00;;;;;;5057604;28;20170;-74
2020/12/25 06:53:31;;;;;;;25.95;25.15;;;1.40;1.00;;;;;;5057582;28;20534;-74
2020/12/25 06:56:16;;;;;;;27.67;26.77;;;1.40;1.00;;;;;;5075802;28;20631;-74
2020/12/25 06:58:51;;;;;;;20.60;19.85;;;1.40;1.00;;;;;;5075181;28;20227;-73
2020/12/25 07:01:33;;;;;;;29.83;28.00;;;1.30;1.00;;;;;;5057382;28;20645;-74
2020/12/25 07:03:59;;;;;;;31.90;30.85;;;1.30;1.00;;;;;;5075615;28;20615;-74
2020/12/25 07:06:28;;;;;;;22.08;21.38;;;1.30;1.00;;;;;;5075547;28;20172;-74
2020/12/25 07:08:54;;;;;;;21.92;20.92;;;1.30;1.00;;;;;;5075072;28;20173;-74
2020/12/25 07:11:20;;;;;;;23.93;22.93;;;1.30;1.00;;;;;;5075487;28;20252;-74
2020/12/25 07:13:46;;;;;;;25.58;24.58;;;1.30;1.00;;;;;;5057182;28;20631;-74
2020/12/25 07:16:12;;;;;;;34.05;32.35;;;1.30;1.00;;;;;;5075311;28;20173;-74
2020/12/25 07:18:38;;;;;;;22.40;21.40;;;1.30;1.00;;;;;;5074763;28;20197;-74
2020/12/25 07:21:07;;;;;;;28.43;27.53;;;1.20;1.00;;;;;;5075227;28;20423;-74
2020/12/25 07:23:33;;;;;;;22.63;21.52;;;1.20;1.00;;;;;;5075452;28;20168;-74
2020/12/25 07:26:00;;;;;;;22.20;21.17;;;1.20;1.00;;;;;;5075521;28;20540;-74
2020/12/25 07:28:27;;;;;;;16.08;15.02;;;1.20;1.00;;;;;;5074629;28;20247;-74
2020/12/25 07:30:54;;;;;;;21.52;20.45;;;1.20;1.00;;;;;;5074884;28;20181;-74
2020/12/25 07:33:20;;;;;;;16.02;15.23;;;1.20;1.00;;;;;;5056795;28;20177;-74
2020/12/25 07:35:46;;;;;;;24.65;23.42;;;1.30;1.00;;;;;;5075312;28;20174;-74
2020/12/25 07:38:14;;;;;;;26.77;25.37;;;1.30;1.00;;;;;;5074686;28;20205;-74
2020/12/25 07:40:41;;;;;;;23.95;22.98;;;1.30;1.00;;;;;;5075223;28;20400;-74
2020/12/25 07:43:06;;;;;;;22.88;21.85;;;1.30;1.00;;;;;;5075010;28;20267;-74
2020/12/25 07:45:33;;;;;;;19.73;17.83;;;1.30;1.00;;;;;;5074783;28;20204;-74
2020/12/25 07:48:01;;;;;;;26.95;25.60;;;1.30;1.00;;;;;;5074374;28;20726;-74
2020/12/25 07:50:26;;;;;;;27.23;26.23;;;1.30;1.00;;;;;;5074827;28;20534;-74
2020/12/25 07:52:52;;;;;;;37.93;36.63;;;1.30;1.00;;;;;;5074675;28;20173;-74
2020/12/25 07:55:18;;;;;;;21.97;21.17;;;1.30;1.00;;;;;;5056962;28;20180;-74
2020/12/25 07:57:46;;;;;;;24.48;23.67;;;1.30;1.00;;;;;;5073931;28;20304;-74
2020/12/25 08:00:13;;;;;;;28.15;27.15;;;1.30;1.00;;;;;;5074540;28;20165;-73
2020/12/25 08:02:41;;;;;;;20.02;19.30;;;1.30;1.00;;;;;;5074536;28;20196;-74
2020/12/25 08:05:09;;;;;;;23.13;22.40;;;1.30;1.00;;;;;;5074555;28;20179;-74
2020/12/25 08:07:42;;;;;;;26.33;25.17;;;1.30;1.00;;;;;;5073856;28;20663;-74
2020/12/25 08:10:12;;;;;;;27.38;25.92;;;1.30;1.00;;;;;;5074548;28;20177;-74
2020/12/25 08:12:42;;;;;;;31.45;29.98;;;1.30;1.00;;;;;;5056080;28;20173;-74
2020/12/25 08:15:07;;;;;;;20.05;19.25;;;1.30;1.00;;;;;;5056329;28;20208;-74
2020/12/25 08:17:33;;;;;;;22.00;20.53;;;1.30;1.00;;;;;;5074014;28;20662;-73
2020/12/25 08:20:02;;;;;;;21.20;20.40;;;1.40;1.00;;;;;;5074453;28;20553;-74
2020/12/25 08:22:27;;;;;;;24.90;23.50;;;1.50;1.00;;;;;;5073798;28;20223;-74
2020/12/25 08:24:54;;;;;;;29.83;28.40;;;1.50;1.00;;;;;;5073886;28;20642;-74
2020/12/25 08:27:20;;;;;;;24.33;23.35;;;1.60;1.00;;;;;;5073946;28;20220;-73
2020/12/25 08:29:49;;;;;;;34.60;33.23;;;1.60;1.00;;;;;;5073664;28;20212;-73
2020/12/25 08:32:14;;;;;;;28.88;27.88;;;1.60;1.00;;;;;;5055705;28;20177;-73
2020/12/25 08:34:40;;;;;;;31.53;30.30;;;1.60;1.00;;;;;;5073930;28;20180;-73
2020/12/25 08:37:07;;;;;;;34.37;33.07;;;1.60;1.00;;;;;;5074205;28;20287;-73
2020/12/25 08:39:33;;;;;;;31.02;29.40;;;1.60;1.00;;;;;;5073469;28;20165;-75
2020/12/25 08:42:00;;;;;;;32.65;30.70;;;1.60;1.00;;;;;;5073831;28;20509;-74
2020/12/25 08:44:26;;;;;;;28.45;27.38;;;1.60;1.00;;;;;;5070605;28;20199;-74
2020/12/25 08:47:09;;;;;;;25.30;24.38;;;1.60;1.00;;;;;;5063763;28;20197;-74
2020/12/25 08:49:34;;;;;;;26.98;25.60;;;1.60;1.00;;;;;;5064386;28;20575;-74
2020/12/25 08:52:00;;;;;;;31.77;30.23;;;1.60;1.00;;;;;;5057882;28;20178;-74
2020/12/25 08:54:30;;;;;;;28.33;27.23;;;1.60;1.00;;;;;;5060935;28;20650;-73
2020/12/25 08:56:56;;;;;;;23.10;22.02;;;1.70;1.00;;;;;;5062795;28;20220;-73
2020/12/25 08:59:22;;;;;;;26.35;25.55;;;1.70;1.00;;;;;;5060283;28;20622;-73
2020/12/25 09:01:52;;;;;;;31.88;30.33;;;1.70;1.00;;;;;;5064440;28;20246;-73
2020/12/25 09:04:18;;;;;;;25.13;24.17;;;1.70;1.00;;;;;;5066330;28;20697;-73
2020/12/25 09:06:45;;;;;;;29.52;27.25;;;1.80;1.00;;;;;;5069925;28;20193;-73
2020/12/25 09:09:11;;;;;;;22.08;21.27;;;1.80;1.00;;;;;;5070300;28;20248;-73
2020/12/25 09:11:37;;;;;;;27.00;26.10;;;1.80;1.00;;;;;;5070258;28;20259;-72
2020/12/25 09:14:03;;;;;;;25.03;23.87;;;1.80;1.00;;;;;;5070071;28;20203;-73
2020/12/25 09:16:28;;;;;;;29.25;28.25;;;1.80;1.00;;;;;;5062151;28;20628;-73
2020/12/25 09:18:56;;;;;;;22.97;21.73;;;1.80;1.00;;;;;;5059652;28;20251;-73
2020/12/25 09:21:21;;;;;;;21.30;20.00;;;1.90;1.00;;;;;;5060033;28;20532;-74
2020/12/25 09:23:47;;;;;;;22.27;21.57;;;1.90;1.00;;;;;;5060076;28;20165;-73
2020/12/25 09:26:14;;;;;;;24.23;23.17;;;1.90;1.00;;;;;;5060249;28;20174;-73
2020/12/25 09:28:40;;;;;;;29.02;27.77;;;2.00;1.00;;;;;;5059862;28;20185;-72
2020/12/25 09:31:08;;;;;;;26.50;25.47;;;2.00;1.00;;;;;;5056098;28;20239;-73
2020/12/25 09:33:34;;;;;;;28.67;27.10;;;2.00;1.00;;;;;;5057913;28;20411;-73
2020/12/25 09:36:01;;;;;;;26.00;23.90;;;2.10;1.00;;;;;;5058212;28;20180;-73
2020/12/25 09:38:26;;;;;;;21.25;20.45;;;2.00;1.00;;;;;;5057745;28;20683;-73
2020/12/25 09:40:52;;;;;;;34.73;32.87;;;2.00;1.00;;;;;;5058201;28;20311;-73
2020/12/25 09:43:19;;;;;;;30.77;29.57;;;2.10;1.00;;;;;;5058350;28;20610;-73
2020/12/25 09:45:45;;;;;;;30.48;28.92;;;2.10;1.00;;;;;;5058093;28;20487;-73
2020/12/25 09:48:11;;;;;;;35.70;33.67;;;2.10;1.00;;;;;;5039988;28;20698;-73
2020/12/25 09:50:36;;;;;;;33.63;31.93;;;2.20;1.00;;;;;;5058005;28;20174;-73
2020/12/25 09:53:02;;;;;;;50.67;48.17;;;2.30;1.00;;;;;;5057934;28;20511;-73
2020/12/25 09:55:28;;;;;;;40.50;38.17;;;2.30;1.00;;;;;;5057945;28;20189;-73
2020/12/25 09:57:54;;;;;;;40.97;38.40;;;2.40;1.00;;;;;;5039744;28;20217;-73
2020/12/25 10:00:20;;;;;;;42.83;40.40;;;2.50;1.00;;;;;;5057884;28;20408;-73
2020/12/25 10:02:45;;;;;;;31.87;29.97;;;2.50;1.00;;;;;;5058260;28;20174;-73
2020/12/25 10:05:12;;;;;;;39.37;37.07;;;2.50;1.00;;;;;;5040902;28;20416;-74
2020/12/25 10:07:38;;;;;;;41.83;39.03;;;2.60;1.00;;;;;;5059718;28;20254;-73
2020/12/25 10:10:05;;;;;;;44.60;41.47;;;2.60;1.00;;;;;;5077845;28;20184;-73
2020/12/25 10:12:31;;;;;;;49.03;45.88;;;2.70;1.00;;;;;;5077970;28;20165;-73
2020/12/25 10:14:56;;;;;;;44.77;42.27;;;2.70;1.00;;;;;;5077815;28;20635;-73
2020/12/25 10:17:22;;;;;;;51.40;48.80;;;2.70;1.00;;;;;;5075366;28;20682;-73
2020/12/25 10:19:47;;;;;;;34.03;32.30;;;2.70;1.00;;;;;;5071502;28;20184;-73
2020/12/25 10:22:13;;;;;;;37.60;35.50;;;2.80;1.00;;;;;;5074762;28;20169;-73
2020/12/25 10:24:39;;;;;;;35.30;34.00;;;2.70;1.00;;;;;;5074853;28;20173;-73
2020/12/25 10:27:05;;;;;;;34.33;32.60;;;2.70;1.00;;;;;;5074652;28;20185;-73
2020/12/25 10:29:30;;;;;;;31.77;30.10;;;2.70;1.00;;;;;;5071339;28;20795;-73
2020/12/25 10:31:56;;;;;;;32.83;31.40;;;2.80;1.00;;;;;;5054549;28;20706;-73
2020/12/25 10:34:22;;;;;;;40.73;38.77;;;2.80;1.00;;;;;;5054544;28;20223;-74
2020/12/25 10:36:48;;;;;;;30.60;28.80;;;2.80;1.00;;;;;;5054545;28;20185;-73
2020/12/25 10:39:14;;;;;;;30.63;29.13;;;2.80;1.00;;;;;;5054637;28;20174;-73
2020/12/25 10:41:40;;;;;;;44.13;41.47;;;2.90;1.00;;;;;;5054633;28;20471;-73
2020/12/25 10:44:07;;;;;;;44.30;41.90;;;2.90;1.00;;;;;;5036627;28;20204;-74
2020/12/25 10:46:32;;;;;;;34.00;32.38;;;2.90;1.00;;;;;;5054258;28;20419;-73
2020/12/25 10:48:58;;;;;;;35.73;33.87;;;3.00;1.00;;;;;;5054179;28;20663;-73
2020/12/25 10:51:24;;;;;;;38.43;36.43;;;2.90;1.00;;;;;;5036555;28;20412;-73
2020/12/25 10:53:50;;;;;;;25.13;23.90;;;3.00;1.00;;;;;;5054110;28;20251;-73
2020/12/25 10:56:27;;;;;;;35.20;33.70;;;2.90;1.00;;;;;;5054379;28;20208;-73
2020/12/25 10:58:53;;;;;;;32.58;31.27;;;2.90;1.00;;;;;;5053780;28;20452;-74
2020/12/25 11:01:26;;;;;;;33.33;31.58;;;3.00;1.00;;;;;;5054231;28;20170;-74
2020/12/25 11:03:53;;;;;;;30.48;28.13;;;3.00;1.00;;;;;;5054244;28;20239;-73
2020/12/25 11:06:19;;;;;;;25.23;24.02;;;3.00;1.00;;;;;;5053909;28;20174;-73
2020/12/25 11:08:48;;;;;;;24.52;22.92;;;3.00;1.00;;;;;;5054029;28;20170;-74
2020/12/25 11:11:43;;;;;;;23.35;22.13;;;3.00;1.00;;;;;;5053990;28;20206;-74
2020/12/25 11:14:09;;;;;;;31.88;30.77;;;3.10;1.00;;;;;;5019574;28;20231;-73
2020/12/25 11:16:37;;;;;;;34.17;32.95;;;3.10;1.00;;;;;;5053729;28;20182;-74
2020/12/25 11:19:05;;;;;;;30.38;29.10;;;3.10;1.00;;;;;;5053670;28;20184;-74
2020/12/25 11:21:31;;;;;;;34.95;33.85;;;3.10;1.00;;;;;;5053969;28;20182;-74
2020/12/25 11:23:59;;;;;;;26.23;25.10;;;3.10;1.00;;;;;;5053835;28;20193;-74
2020/12/25 11:26:25;;;;;;;32.83;31.48;;;3.20;1.00;;;;;;5053907;28;20658;-74
2020/12/25 11:28:52;;;;;;;34.13;32.45;;;3.30;1.00;;;;;;5053082;28;20628;-75
2020/12/25 11:31:19;;;;;;;28.35;27.30;;;3.30;1.00;;;;;;5053564;28;20178;-75
2020/12/25 11:33:47;;;;;;;25.20;24.30;;;3.40;1.00;;;;;;5053774;28;20193;-74
2020/12/25 11:36:18;;;;;;;28.20;27.00;;;3.40;1.00;;;;;;5053573;28;20243;-74
2020/12/25 11:38:45;;;;;;;27.17;25.95;;;3.50;1.00;;;;;;5035723;28;20198;-75
2020/12/25 11:41:11;;;;;;;25.38;24.58;;;3.50;1.00;;;;;;5053543;28;20174;-74
2020/12/25 11:43:38;;;;;;;17.33;16.63;;;3.40;1.00;;;;;;5053354;28;20181;-74
2020/12/25 11:46:05;;;;;;;24.90;23.90;;;3.40;1.00;;;;;;5053279;28;20170;-74
2020/12/25 11:48:30;;;;;;;32.55;31.35;;;3.40;1.00;;;;;;5035481;28;20690;-74
2020/12/25 11:50:56;;;;;;;25.80;24.40;;;3.40;1.00;;;;;;5052972;28;20181;-74
2020/12/25 11:53:22;;;;;;;24.30;23.30;;;3.40;1.00;;;;;;5053420;28;20180;-73
2020/12/25 11:55:48;;;;;;;29.10;28.20;;;3.40;1.00;;;;;;5053172;28;20178;-74
2020/12/25 11:58:15;;;;;;;29.80;28.50;;;3.50;1.00;;;;;;5052742;28;20241;-74
2020/12/25 12:00:40;;;;;;;27.65;26.40;;;3.50;1.00;;;;;;5053449;28;20236;-74
2020/12/25 12:03:06;;;;;;;23.40;22.63;;;3.50;1.00;;;;;;5053328;28;20169;-74
2020/12/25 12:05:31;;;;;;;27.87;26.67;;;3.50;1.00;;;;;;5053374;28;20170;-74
2020/12/25 12:07:57;;;;;;;30.47;29.40;;;3.50;1.00;;;;;;5052764;28;20567;-74
2020/12/25 12:10:22;;;;;;;21.47;20.67;;;3.50;1.00;;;;;;5052911;28;20182;-74
2020/12/25 12:12:48;;;;;;;20.47;19.70;;;3.50;1.00;;;;;;5053100;28;20166;-74
2020/12/25 12:15:13;;;;;;;24.83;23.93;;;3.50;1.00;;;;;;5052835;28;20228;-75
2020/12/25 12:17:39;;;;;;;22.10;21.40;;;3.50;1.00;;;;;;5052634;28;20769;-74
2020/12/25 12:20:05;;;;;;;27.00;26.10;;;3.50;1.00;;;;;;5052765;28;20177;-74
2020/12/25 12:22:30;;;;;;;32.97;31.93;;;3.50;1.00;;;;;;5044260;28;20208;-73
2020/12/25 12:24:56;;;;;;;28.87;27.60;;;3.50;1.00;;;;;;5072529;28;20165;-74
2020/12/25 12:27:21;;;;;;;25.60;24.70;;;3.50;1.00;;;;;;5072582;28;20197;-74
2020/12/25 12:29:47;;;;;;;30.27;29.03;;;3.50;1.00;;;;;;5072527;28;20203;-74
2020/12/25 12:32:12;;;;;;;23.60;22.73;;;3.50;1.00;;;;;;5072631;28;20173;-74
2020/12/25 12:34:38;;;;;;;27.20;25.60;;;3.40;1.00;;;;;;5072417;28;20188;-75
2020/12/25 12:37:04;;;;;;;32.90;31.00;;;3.40;1.00;;;;;;5054543;28;20223;-75
2020/12/25 12:39:29;;;;;;;22.37;21.50;;;3.40;1.00;;;;;;5054674;28;20513;-74
2020/12/25 12:41:58;;;;;;;23.77;22.80;;;3.40;1.00;;;;;;5054679;28;20176;-74
2020/12/25 12:44:24;;;;;;;30.90;29.40;;;3.40;1.00;;;;;;5072657;28;20545;-75
2020/12/25 12:46:54;;;;;;;32.50;30.98;;;3.40;1.00;;;;;;5072795;28;20228;-75